PKWA/KWA METAR and TAF weather

Enter ICAO airport designator
Station Type Date Time Source
PKWA METAR 2021/09/24 06:00 UTC NOAA

PKWA 240600Z AUTO 05004KT 10SM BKN021 28/25 A2982 RMK AO2 T02770248


Station Type Date Time Source
PKWA Decoded METAR 2021/09/24 06:00 UTC NOAA

Kwajalein, Bucholz AAF, Kwajalein KMR ATOL Airport, Marshall Islands (PKWA) 08-43N 167-44E 2M
Sep 24, 2021 - 02:00 AM EDT / 2021.09.24 0600 UTC
Wind: from the NE (050 degrees) at 5 MPH (4 KT):0
Visibility: 10 mile(s):0
Sky conditions: mostly cloudy
Temperature: 81.9 F (27.7 C)
Dew Point: 76.6 F (24.8 C)
Relative Humidity: 84%
Pressure (altimeter): 29.82 in. Hg (1009 hPa)
ob: PKWA 240600Z AUTO 05004KT 10SM BKN021 28/25 A2982 RMK AO2 T02770248
cycle: 6

Station Type Date Time Source
PKWA TAF 2021/09/24 06:30 UTC NOAA

TAF PKWA 240524Z 2406/2506 08011KT P6SM VCSH SCT018 BKN130

Example: see airport list